createdAt,value
2023-05-09T00:01:31.457Z,16.23
2023-05-09T00:03:59.966Z,16.58
2023-05-09T00:06:27.876Z,15.93
2023-05-09T00:08:55.907Z,16.10
2023-05-09T00:11:23.481Z,17.17
2023-05-09T00:13:52.248Z,16.85
2023-05-09T00:16:20.861Z,16.98
2023-05-09T00:18:48.471Z,16.75
2023-05-09T00:21:15.963Z,15.45
2023-05-09T00:23:43.658Z,15.25
2023-05-09T00:26:11.398Z,16.05
2023-05-09T00:28:41.834Z,16.88
2023-05-09T00:31:09.386Z,16.77
2023-05-09T00:33:36.925Z,18.65
2023-05-09T00:36:05.013Z,16.85
2023-05-09T00:38:32.721Z,17.60
2023-05-09T00:41:00.642Z,18.05
2023-05-09T00:43:28.479Z,19.52
2023-05-09T00:45:58.134Z,19.60
2023-05-09T00:48:25.785Z,19.75
2023-05-09T00:50:53.520Z,21.42
2023-05-09T00:53:21.203Z,20.42
2023-05-09T00:55:48.886Z,20.77
2023-05-09T00:58:17.246Z,21.27
2023-05-09T01:00:45.325Z,21.42
2023-05-09T01:03:14.224Z,20.02
2023-05-09T01:05:57.324Z,19.92
2023-05-09T01:08:35.243Z,21.50
2023-05-09T01:11:33.601Z,19.58
2023-05-09T01:14:15.120Z,20.85
2023-05-09T01:17:02.115Z,22.52
2023-05-09T01:19:52.576Z,24.40
2023-05-09T01:22:37.973Z,20.88
2023-05-09T01:25:52.285Z,21.88
2023-05-09T01:29:02.008Z,26.00
2023-05-09T01:31:31.435Z,21.70
2023-05-09T01:34:03.270Z,22.33
2023-05-09T01:36:35.646Z,22.42
2023-05-09T01:39:05.606Z,22.30
2023-05-09T01:41:37.963Z,23.20
2023-05-09T01:44:08.867Z,22.08
2023-05-09T01:46:38.139Z,20.92
2023-05-09T01:49:08.324Z,22.67
2023-05-09T01:51:38.485Z,21.83
2023-05-09T01:54:07.211Z,21.67
2023-05-09T01:56:36.842Z,22.30
2023-05-09T01:59:07.487Z,21.95
2023-05-09T02:01:37.168Z,23.08
2023-05-09T02:04:05.926Z,22.17
2023-05-09T02:06:34.742Z,20.90
2023-05-09T02:09:03.286Z,22.08
2023-05-09T02:11:31.122Z,22.58
2023-05-09T02:13:58.843Z,20.98
2023-05-09T02:16:27.947Z,21.40
2023-05-09T02:18:55.935Z,20.65
2023-05-09T02:21:23.399Z,21.15
2023-05-09T02:23:51.099Z,20.02
2023-05-09T02:26:19.408Z,20.23
2023-05-09T02:28:50.484Z,20.60
2023-05-09T02:31:20.949Z,20.90
2023-05-09T02:33:49.867Z,20.38
2023-05-09T02:36:24.526Z,20.02
2023-05-09T02:38:52.204Z,21.30
2023-05-09T02:41:19.889Z,20.00
2023-05-09T02:43:48.458Z,23.80
2023-05-09T02:46:16.290Z,19.48
2023-05-09T02:48:44.132Z,22.45
2023-05-09T02:51:12.003Z,19.92
2023-05-09T02:53:39.608Z,19.23
2023-05-09T02:56:07.941Z,18.90
2023-05-09T02:58:35.484Z,18.83
2023-05-09T03:01:03.069Z,18.95
2023-05-09T03:03:34.210Z,20.25
2023-05-09T03:06:03.818Z,16.05
2023-05-09T03:08:31.160Z,14.90
2023-05-09T03:10:58.723Z,15.23
2023-05-09T03:13:25.932Z,14.68
2023-05-09T03:15:53.103Z,14.32
2023-05-09T03:18:20.328Z,13.88
2023-05-09T03:20:47.335Z,14.50
2023-05-09T03:23:14.528Z,13.02
2023-05-09T03:25:41.675Z,11.70
2023-05-09T03:28:08.636Z,12.73
2023-05-09T03:30:35.778Z,11.88
2023-05-09T03:33:05.209Z,12.52
2023-05-09T03:35:32.262Z,10.65
2023-05-09T03:37:59.631Z,14.88
2023-05-09T03:40:26.963Z,11.52
2023-05-09T03:43:05.144Z,9.13
2023-05-09T03:45:32.990Z,12.18
2023-05-09T03:48:00.347Z,10.25
2023-05-09T03:50:27.493Z,7.38
2023-05-09T03:52:57.505Z,8.40
2023-05-09T03:55:25.546Z,5.72
2023-05-09T03:57:54.376Z,5.22
2023-05-09T04:00:22.925Z,6.43
2023-05-09T04:03:01.480Z,5.40
2023-05-09T04:05:35.486Z,7.65
2023-05-09T04:08:04.894Z,5.00
2023-05-09T04:10:32.800Z,6.63
2023-05-09T04:13:00.129Z,5.50
2023-05-09T04:15:27.357Z,12.70
2023-05-09T04:17:56.542Z,19.33
2023-05-09T04:20:23.641Z,6.75
2023-05-09T04:22:50.740Z,5.93
2023-05-09T04:25:20.319Z,6.25
2023-05-09T04:27:48.610Z,10.43
2023-05-09T04:30:16.112Z,6.55
2023-05-09T04:32:46.105Z,7.75
2023-05-09T04:35:14.266Z,5.50
2023-05-09T04:37:45.528Z,13.43
2023-05-09T04:40:13.447Z,19.85
2023-05-09T04:42:47.027Z,6.90
2023-05-09T04:45:15.845Z,11.27
2023-05-09T04:47:46.870Z,7.65
2023-05-09T04:50:13.963Z,5.80
2023-05-09T04:52:41.115Z,6.97
2023-05-09T04:55:08.799Z,6.63
2023-05-09T04:57:40.689Z,8.00
2023-05-09T05:00:11.241Z,7.20
2023-05-09T05:02:39.753Z,6.50
2023-05-09T05:05:12.208Z,6.18
2023-05-09T05:07:42.613Z,12.32
2023-05-09T05:10:11.773Z,10.63
2023-05-09T05:12:41.094Z,6.72
2023-05-09T05:15:11.886Z,10.88
2023-05-09T05:17:39.824Z,7.90
2023-05-09T05:20:10.717Z,9.85
2023-05-09T05:22:42.796Z,9.30
2023-05-09T05:25:10.448Z,8.10
2023-05-09T05:27:40.195Z,9.18
2023-05-09T05:30:10.684Z,9.40
2023-05-09T05:32:38.079Z,9.32
2023-05-09T05:35:06.510Z,6.10
2023-05-09T05:37:37.931Z,9.88
2023-05-09T05:40:06.752Z,7.60
2023-05-09T05:42:34.982Z,7.80
2023-05-09T05:45:05.127Z,6.55
2023-05-09T05:47:37.004Z,8.13
2023-05-09T05:50:12.014Z,9.50
2023-05-09T05:52:41.668Z,10.73
2023-05-09T05:55:12.177Z,7.50
2023-05-09T05:57:39.797Z,10.60
2023-05-09T06:00:11.482Z,10.13
2023-05-09T06:02:45.869Z,8.48
2023-05-09T06:05:20.285Z,13.02
2023-05-09T06:07:47.460Z,10.30
2023-05-09T06:10:16.063Z,10.05
2023-05-09T06:12:44.761Z,11.50
2023-05-09T06:15:12.966Z,14.20
2023-05-09T06:17:44.156Z,12.80
2023-05-09T06:20:11.501Z,10.90
2023-05-09T06:22:38.838Z,9.38
2023-05-09T06:25:08.692Z,12.80
2023-05-09T06:27:38.136Z,9.35
2023-05-09T06:30:24.018Z,8.45
2023-05-09T06:32:54.762Z,9.18
2023-05-09T06:35:22.127Z,8.07
2023-05-09T06:37:49.799Z,9.23
2023-05-09T06:40:17.265Z,11.90
2023-05-09T06:42:45.606Z,8.98
2023-05-09T06:45:12.940Z,10.18
2023-05-09T06:47:40.422Z,11.80
2023-05-09T06:50:09.409Z,10.45
2023-05-09T06:52:37.104Z,12.57
2023-05-09T06:55:04.860Z,9.90
2023-05-09T06:57:32.646Z,8.10
2023-05-09T07:00:00.306Z,11.27
2023-05-09T07:02:27.848Z,10.27
2023-05-09T07:04:54.974Z,27.13
2023-05-09T07:07:22.445Z,19.17
2023-05-09T07:09:52.951Z,13.38
2023-05-09T07:12:22.513Z,24.60
2023-05-09T07:14:49.499Z,17.83
2023-05-09T07:17:23.493Z,10.63
2023-05-09T07:19:52.048Z,8.90
2023-05-09T07:22:19.418Z,12.20
2023-05-09T07:24:47.689Z,43.80
2023-05-09T07:27:15.028Z,61.80
2023-05-09T07:29:42.372Z,50.00
2023-05-09T07:32:09.686Z,16.33
2023-05-09T07:34:37.042Z,8.93
2023-05-09T07:37:04.828Z,15.38
2023-05-09T07:39:32.607Z,86.43
2023-05-09T07:41:59.742Z,12.18
2023-05-09T07:44:26.875Z,42.75
2023-05-09T07:46:55.827Z,10.45
2023-05-09T07:49:23.376Z,8.88
2023-05-09T07:51:50.642Z,8.68
2023-05-09T07:54:17.726Z,8.02
2023-05-09T07:56:44.789Z,24.08
2023-05-09T07:59:12.821Z,44.85
2023-05-09T08:01:39.943Z,8.10
2023-05-09T08:04:09.129Z,14.80
2023-05-09T08:06:36.875Z,22.65
2023-05-09T08:09:04.814Z,10.23
2023-05-09T08:11:36.160Z,14.30
2023-05-09T08:14:03.616Z,7.88
2023-05-09T08:16:30.876Z,17.80
2023-05-09T08:18:58.223Z,9.93
2023-05-09T08:21:25.441Z,7.45
2023-05-09T08:23:53.036Z,8.95
2023-05-09T08:26:20.167Z,10.45
2023-05-09T08:28:47.344Z,10.93
2023-05-09T08:31:14.616Z,5.38
2023-05-09T08:33:42.069Z,7.38
2023-05-09T08:36:09.380Z,4.00
2023-05-09T08:38:37.178Z,3.58
2023-05-09T08:41:04.454Z,5.70
2023-05-09T08:43:34.114Z,6.03
2023-05-09T08:46:08.259Z,3.10
2023-05-09T08:48:39.478Z,4.25
2023-05-09T08:51:07.969Z,3.95
2023-05-09T08:53:35.493Z,5.88
2023-05-09T08:56:06.386Z,4.55
2023-05-09T08:58:34.520Z,3.83
2023-05-09T09:01:06.622Z,4.53
2023-05-09T09:03:33.947Z,5.60
2023-05-09T09:06:01.931Z,6.35
2023-05-09T09:08:30.920Z,5.00
2023-05-09T09:10:59.417Z,4.22
2023-05-09T09:13:26.622Z,4.90
2023-05-09T09:15:57.312Z,7.38
2023-05-09T09:18:30.439Z,4.88
2023-05-09T09:21:03.153Z,5.50
2023-05-09T09:23:31.820Z,6.40
2023-05-09T09:26:06.808Z,6.57
2023-05-09T09:28:34.654Z,7.35
2023-05-09T09:31:02.382Z,6.90
2023-05-09T09:33:29.906Z,6.22
2023-05-09T09:35:57.702Z,6.50
2023-05-09T09:38:26.824Z,6.60
2023-05-09T09:40:59.034Z,7.32
2023-05-09T09:43:31.340Z,6.53
2023-05-09T09:46:05.684Z,6.97
2023-05-09T09:48:35.570Z,6.85
2023-05-09T09:51:12.738Z,6.90
2023-05-09T09:53:43.999Z,9.57
2023-05-09T09:56:11.784Z,7.10
2023-05-09T09:58:39.356Z,13.30
2023-05-09T10:01:14.154Z,8.60
2023-05-09T10:03:48.030Z,16.50
2023-05-09T10:08:49.161Z,7.00
2023-05-09T10:11:16.721Z,7.65
2023-05-09T10:13:45.452Z,7.70
2023-05-09T10:16:14.064Z,7.00
2023-05-09T10:18:43.038Z,7.65
2023-05-09T10:21:14.792Z,7.28
2023-05-09T10:23:47.460Z,7.75
2023-05-09T10:26:27.530Z,7.90
2023-05-09T10:28:57.718Z,6.43
2023-05-09T10:31:29.821Z,6.65
2023-05-09T10:33:58.820Z,7.10
2023-05-09T10:36:26.490Z,6.05
2023-05-09T10:38:56.370Z,8.40
2023-05-09T10:41:24.175Z,8.68
2023-05-09T10:43:51.692Z,5.55
2023-05-09T10:46:19.432Z,6.88
2023-05-09T10:48:49.018Z,5.88
2023-05-09T10:51:17.606Z,6.20
2023-05-09T10:53:47.956Z,6.60
2023-05-09T10:56:32.500Z,8.02
2023-05-09T10:59:00.878Z,13.27
2023-05-09T11:01:39.499Z,33.35
2023-05-09T11:04:16.964Z,10.45
2023-05-09T11:06:54.586Z,7.88
2023-05-09T11:09:33.321Z,7.82
2023-05-09T11:12:11.840Z,22.85
2023-05-09T11:14:40.732Z,15.65
2023-05-09T11:17:27.225Z,13.80
2023-05-09T11:19:59.475Z,7.68
2023-05-09T11:22:38.612Z,7.82
2023-05-09T11:25:14.652Z,13.55
2023-05-09T11:27:52.291Z,13.80
2023-05-09T11:30:20.659Z,30.33
2023-05-09T11:32:55.319Z,7.53
2023-05-09T11:35:23.906Z,7.93
2023-05-09T11:38:00.377Z,5.70
2023-05-09T11:40:29.064Z,7.40
2023-05-09T11:42:58.656Z,6.85
2023-05-09T11:45:33.313Z,6.60
2023-05-09T11:48:01.526Z,6.07
2023-05-09T11:50:32.657Z,5.68
2023-05-09T11:52:59.765Z,4.65
2023-05-09T11:55:30.371Z,6.88
2023-05-09T11:57:59.414Z,5.82
2023-05-09T12:00:27.109Z,4.78
2023-05-09T12:02:54.628Z,8.20
2023-05-09T12:05:23.558Z,6.38
2023-05-09T12:07:52.647Z,5.13
2023-05-09T12:10:23.103Z,5.38
2023-05-09T12:12:52.473Z,5.38
2023-05-09T12:15:21.569Z,5.18
2023-05-09T12:18:05.242Z,4.32
2023-05-09T12:20:45.257Z,5.88
2023-05-09T12:23:14.584Z,5.13
2023-05-09T12:25:56.559Z,10.70
2023-05-09T12:28:25.484Z,5.00
2023-05-09T12:30:53.991Z,5.15
2023-05-09T12:33:21.418Z,3.80
2023-05-09T12:36:11.424Z,5.63
2023-05-09T12:38:39.250Z,5.45
2023-05-09T12:41:15.520Z,4.38
2023-05-09T12:43:56.228Z,4.03
2023-05-09T12:46:23.591Z,3.83
2023-05-09T12:48:51.759Z,5.07
2023-05-09T12:51:21.297Z,3.60
2023-05-09T12:53:49.294Z,3.30
2023-05-09T12:56:23.513Z,3.53
2023-05-09T12:58:55.574Z,7.82
2023-05-09T13:01:28.844Z,4.93
2023-05-09T13:04:07.654Z,4.20
2023-05-09T13:06:36.332Z,5.50
2023-05-09T13:09:06.559Z,6.07
2023-05-09T13:11:33.848Z,4.20
2023-05-09T13:14:03.231Z,3.85
2023-05-09T13:16:30.416Z,3.45
2023-05-09T13:18:57.437Z,4.18
2023-05-09T13:21:25.387Z,3.72
2023-05-09T13:23:52.688Z,5.80
2023-05-09T13:26:19.860Z,5.65
2023-05-09T13:28:46.929Z,4.00
2023-05-09T13:31:14.227Z,3.80
2023-05-09T13:33:41.260Z,3.55
2023-05-09T13:36:08.961Z,5.30
2023-05-09T13:38:40.350Z,3.20
2023-05-09T13:41:07.773Z,5.45
2023-05-09T13:43:35.607Z,3.63
2023-05-09T13:46:03.636Z,5.90
2023-05-09T13:48:31.076Z,3.72
2023-05-09T13:51:00.989Z,6.63
2023-05-09T13:53:28.298Z,5.97
2023-05-09T13:55:55.363Z,3.42
2023-05-09T13:58:22.653Z,6.28
2023-05-09T14:00:49.696Z,5.15
2023-05-09T14:03:18.995Z,4.57
2023-05-09T14:05:46.426Z,8.25
2023-05-09T14:08:13.852Z,6.88
2023-05-09T14:10:41.000Z,5.63
2023-05-09T14:13:11.097Z,7.40
2023-05-09T14:15:38.572Z,6.10
2023-05-09T14:18:05.650Z,5.00
2023-05-09T14:20:34.958Z,6.40
2023-05-09T14:23:01.981Z,5.07
2023-05-09T14:25:29.512Z,8.52
2023-05-09T14:27:56.618Z,4.85
2023-05-09T14:30:26.588Z,5.22
2023-05-09T14:32:53.678Z,4.75
2023-05-09T14:35:21.137Z,6.28
2023-05-09T14:37:48.244Z,6.63
2023-05-09T14:40:15.777Z,4.43
2023-05-09T14:42:44.270Z,8.48
2023-05-09T14:45:13.084Z,6.43
2023-05-09T14:47:41.557Z,10.10
2023-05-09T14:50:11.787Z,4.57
2023-05-09T14:52:39.612Z,3.88
2023-05-09T14:55:07.602Z,8.70
2023-05-09T14:57:38.012Z,5.72
2023-05-09T15:00:19.445Z,4.45
2023-05-09T15:02:48.250Z,6.20
2023-05-09T15:05:15.979Z,6.20
2023-05-09T15:07:43.436Z,11.05
2023-05-09T15:10:10.934Z,4.50
2023-05-09T15:12:37.994Z,6.07
2023-05-09T15:15:13.817Z,4.20
2023-05-09T15:17:41.202Z,8.07
2023-05-09T15:20:09.031Z,4.13
2023-05-09T15:22:36.106Z,4.07
2023-05-09T15:25:05.983Z,5.40
2023-05-09T15:27:33.466Z,5.68
2023-05-09T15:30:00.592Z,3.30
2023-05-09T15:32:28.448Z,5.10
2023-05-09T15:34:55.534Z,5.55
2023-05-09T15:37:22.662Z,5.35
2023-05-09T15:39:49.962Z,4.22
2023-05-09T15:42:19.199Z,5.78
2023-05-09T15:44:48.819Z,3.60
2023-05-09T15:47:16.029Z,7.63
2023-05-09T15:49:43.854Z,6.80
2023-05-09T15:52:13.061Z,5.47
2023-05-09T15:54:40.612Z,4.88
2023-05-09T15:57:08.416Z,4.88
2023-05-09T15:59:35.881Z,8.63
2023-05-09T16:02:03.204Z,6.32
2023-05-09T16:04:30.413Z,5.53
2023-05-09T16:06:57.877Z,4.35
2023-05-09T16:09:25.492Z,5.35
2023-05-09T16:11:52.872Z,4.53
2023-05-09T16:14:20.190Z,4.85
2023-05-09T16:16:49.979Z,6.97
2023-05-09T16:19:17.066Z,6.13
2023-05-09T16:21:46.631Z,7.97
2023-05-09T16:24:13.895Z,4.70
2023-05-09T16:26:41.048Z,5.40
2023-05-09T16:29:08.136Z,7.55
2023-05-09T16:31:35.864Z,8.13
2023-05-09T16:34:03.136Z,7.50
2023-05-09T16:36:30.431Z,7.88
2023-05-09T16:38:57.645Z,9.77
2023-05-09T16:41:24.967Z,10.85
2023-05-09T16:43:53.149Z,8.15
2023-05-09T16:46:20.188Z,5.70
2023-05-09T16:48:47.621Z,9.32
2023-05-09T16:51:14.933Z,6.70
2023-05-09T16:53:41.973Z,10.80
2023-05-09T16:56:11.014Z,11.25
2023-05-09T16:58:39.521Z,8.98
2023-05-09T17:01:09.684Z,4.35
2023-05-09T17:03:36.697Z,7.22
2023-05-09T17:06:04.021Z,5.68
2023-05-09T17:08:31.602Z,7.45
2023-05-09T17:10:58.819Z,10.23
2023-05-09T17:13:26.310Z,5.20
2023-05-09T17:15:53.586Z,4.68
2023-05-09T17:18:33.296Z,8.15
2023-05-09T17:21:06.709Z,8.70
2023-05-09T17:23:33.852Z,6.63
2023-05-09T17:26:00.963Z,5.57
2023-05-09T17:28:28.151Z,5.72
2023-05-09T17:30:55.350Z,6.20
2023-05-09T17:33:22.388Z,6.13
2023-05-09T17:35:50.158Z,5.88
2023-05-09T17:38:17.568Z,8.18
2023-05-09T17:40:45.453Z,10.35
2023-05-09T17:43:13.382Z,7.20
2023-05-09T17:45:40.416Z,6.53
2023-05-09T17:48:08.179Z,8.52
2023-05-09T17:50:35.610Z,7.85
2023-05-09T17:53:06.381Z,8.13
2023-05-09T17:55:36.732Z,8.82
2023-05-09T17:58:04.177Z,9.25
2023-05-09T18:00:31.638Z,11.25
2023-05-09T18:03:00.771Z,10.98
2023-05-09T18:05:28.008Z,14.18
2023-05-09T18:07:55.122Z,11.48
2023-05-09T18:10:22.416Z,13.43
2023-05-09T18:12:49.547Z,11.43
2023-05-09T18:15:16.509Z,10.95
2023-05-09T18:17:44.077Z,11.82
2023-05-09T18:20:11.609Z,12.15
2023-05-09T18:22:38.970Z,12.40
2023-05-09T18:25:06.913Z,14.25
2023-05-09T18:27:33.929Z,13.75
2023-05-09T18:30:00.897Z,13.63
2023-05-09T18:32:29.911Z,13.10
2023-05-09T18:34:57.002Z,13.55
2023-05-09T18:37:24.803Z,13.10
2023-05-09T18:39:51.986Z,13.32
2023-05-09T18:42:19.235Z,12.55
2023-05-09T18:44:46.214Z,13.15
2023-05-09T18:47:13.279Z,13.10
2023-05-09T18:49:40.699Z,13.25
2023-05-09T18:52:08.253Z,13.13
2023-05-09T18:54:38.337Z,17.75
2023-05-09T18:57:05.588Z,15.30
2023-05-09T18:59:32.696Z,15.27
2023-05-09T19:01:59.692Z,15.80
2023-05-09T19:04:27.028Z,16.40
2023-05-09T19:06:54.104Z,16.30
2023-05-09T19:09:21.453Z,17.35
2023-05-09T19:11:49.724Z,17.85
2023-05-09T19:14:16.669Z,18.63
2023-05-09T19:16:43.702Z,17.55
2023-05-09T19:19:11.178Z,17.15
2023-05-09T19:21:38.242Z,15.13
2023-05-09T19:24:06.392Z,17.05
2023-05-09T19:26:33.451Z,13.80
2023-05-09T19:29:00.889Z,15.35
2023-05-09T19:31:28.309Z,15.23
2023-05-09T19:33:55.347Z,14.13
2023-05-09T19:36:22.345Z,14.43
2023-05-09T19:38:49.320Z,15.55
2023-05-09T19:41:16.254Z,16.70
2023-05-09T19:43:43.270Z,14.35
2023-05-09T19:46:10.351Z,15.23
2023-05-09T19:48:37.436Z,17.40
2023-05-09T19:51:04.759Z,14.95
2023-05-09T19:53:31.729Z,16.20
2023-05-09T19:55:58.824Z,16.27
2023-05-09T19:58:27.654Z,15.48
2023-05-09T20:00:55.733Z,13.82
2023-05-09T20:03:23.593Z,14.13
2023-05-09T20:05:51.006Z,13.77
2023-05-09T20:08:18.113Z,18.25
2023-05-09T20:10:45.172Z,29.08
2023-05-09T20:13:13.967Z,17.88
2023-05-09T20:15:41.078Z,20.27
2023-05-09T20:18:09.157Z,20.05
2023-05-09T20:20:36.083Z,20.10
2023-05-09T20:23:04.511Z,18.88
2023-05-09T20:25:31.711Z,21.25
2023-05-09T20:27:58.837Z,17.23
2023-05-09T20:30:26.012Z,18.02
2023-05-09T20:32:52.972Z,18.83
2023-05-09T20:35:20.281Z,18.52
2023-05-09T20:37:47.263Z,21.63
2023-05-09T20:40:14.687Z,21.35
2023-05-09T20:42:41.866Z,23.83
2023-05-09T20:45:09.766Z,22.58
2023-05-09T20:47:37.765Z,20.80
2023-05-09T20:50:05.797Z,23.30
2023-05-09T20:52:34.936Z,21.08
2023-05-09T20:55:06.017Z,21.02
2023-05-09T20:57:34.669Z,21.17
2023-05-09T21:00:03.752Z,21.65
2023-05-09T21:02:31.235Z,23.10
2023-05-09T21:04:58.319Z,18.58
2023-05-09T21:07:25.411Z,18.02
2023-05-09T21:09:54.105Z,16.10
2023-05-09T21:12:21.253Z,15.65
2023-05-09T21:14:49.579Z,14.45
2023-05-09T21:17:17.945Z,14.80
2023-05-09T21:19:45.887Z,14.77
2023-05-09T21:22:13.444Z,14.45
2023-05-09T21:24:40.887Z,15.60
2023-05-09T21:27:09.764Z,14.50
2023-05-09T21:29:36.986Z,12.88
2023-05-09T21:32:04.137Z,14.05
2023-05-09T21:34:31.100Z,15.48
2023-05-09T21:36:59.330Z,16.70
2023-05-09T21:39:26.404Z,13.77
2023-05-09T21:41:53.552Z,14.23
2023-05-09T21:44:20.760Z,11.45
2023-05-09T21:46:47.953Z,12.23
2023-05-09T21:49:21.582Z,11.48
2023-05-09T21:54:19.148Z,13.07
2023-05-09T21:56:53.291Z,20.95
2023-05-09T21:59:22.276Z,12.77
2023-05-09T22:01:50.107Z,13.13
2023-05-09T22:04:17.078Z,12.82
2023-05-09T22:06:44.346Z,15.02
2023-05-09T22:09:11.830Z,8.95
2023-05-09T22:11:58.709Z,13.07
2023-05-09T22:14:55.657Z,9.98
2023-05-09T22:17:26.209Z,9.57
2023-05-09T22:19:53.798Z,10.40
2023-05-09T22:22:34.336Z,8.50
2023-05-09T22:25:05.249Z,7.88
2023-05-09T22:27:32.396Z,6.22
2023-05-09T22:30:03.644Z,5.57
2023-05-09T22:32:30.882Z,7.00
2023-05-09T22:34:57.894Z,6.72
2023-05-09T22:37:24.858Z,8.68
2023-05-09T22:39:51.919Z,7.85
2023-05-09T22:42:18.887Z,7.30
2023-05-09T22:44:47.531Z,7.85
2023-05-09T22:47:14.554Z,6.20
2023-05-09T22:49:43.097Z,6.13
2023-05-09T22:52:11.341Z,4.72
2023-05-09T22:54:39.529Z,5.93
2023-05-09T22:57:06.896Z,6.28
2023-05-09T22:59:34.601Z,6.78
2023-05-09T23:02:01.634Z,7.50
2023-05-09T23:04:29.806Z,8.02
2023-05-09T23:06:57.038Z,8.98
2023-05-09T23:09:25.179Z,8.45
2023-05-09T23:11:52.473Z,9.35
2023-05-09T23:14:19.880Z,8.90
2023-05-09T23:16:47.235Z,8.18
2023-05-09T23:19:14.425Z,8.90
2023-05-09T23:21:41.682Z,9.77
2023-05-09T23:24:08.955Z,8.95
2023-05-09T23:26:36.026Z,9.40
2023-05-09T23:29:03.092Z,8.50
2023-05-09T23:31:30.408Z,8.32
2023-05-09T23:33:57.825Z,9.77
2023-05-09T23:36:25.174Z,9.63
2023-05-09T23:38:52.257Z,9.70
2023-05-09T23:41:20.100Z,10.77
2023-05-09T23:43:51.386Z,9.80
2023-05-09T23:46:29.064Z,10.40
2023-05-09T23:49:04.675Z,10.82
2023-05-09T23:51:49.558Z,9.60
2023-05-09T23:54:17.934Z,9.88
2023-05-09T23:56:52.121Z,10.32
2023-05-09T23:59:19.200Z,14.13
